Terminal Aerodrome Forecast
Issued by NWS Upton, NY

Current Version | Previous Version | Text Only | Print | Product List | Glossary On
Versions: 1 2 3 4 5 6 7 8 9 10 11 12 13 14 15 16 17 18 19 20 21 22 23 24 25 26
000
FTUS41 KOKX 270835 AAA
TAFBDR
TAF AMD
KBDR 270835Z 2709/2806 21007KT P6SM FEW012 SCT050 BKN200
     FM271300 21010KT P6SM BKN050
     FM271800 19012G17KT P6SM BKN040
     FM280100 20008KT P6SM SCT010 BKN040=

USA.gov is the U.S. government's official web portal to all federal, state and local government web resources and services.